Airfield :
LOGIN :

Register | Disclaimer

   EN    FR    IT 

 










Legend :    VFR   Marginal VFR   IFR   Intensive IFR   Very Intensive IFR
Visi :
Ceiling :
>= 8 km
>= 3000ft
5 to 8 km
1000 to 3000 ft
1500m to 5 km
500 to 1000 ft
800 to 1500m
200 to 500 ft
< 800m
< 200 ft
Symbols :   Thunderstorms  Fog  Heavy snow  Heavy precipitations  Wind > 20 kt
SIGMETs :     Misc.  Thunderstorms  Icing  Turbulence  Mountain Waves  Volcanic Ashes







- Airport Elevation : 124 ft
- IATA code : RNS
- Download approach charts


LFRN - Rennes

CURRENT METAR :
  • 241530Z AUTO 08006KT 050V110 9999 VCTS BKN044/// OVC052/// ///CB 23/13 Q1015 TEMPO 4000 TSRA

EXPIRED METARs :
  • 241500Z AUTO VRB03KT 9999 BKN045/// OVC062/// ///CB 25/13 Q1015 TEMPO 4000 TSRA
  • 241400Z AUTO 30004KT 250V360 9999 FEW044/// ///CB 25/13 Q1016 TEMPO 4000 TSRA
  • 241330Z AUTO 34004KT 270V070 9999 FEW044 22/13 Q1016 TEMPO 4000 TSRA BKN030CB
  • 241300Z AUTO VRB03KT 9999 SCT038 BKN052 BKN064 23/14 Q1016 TEMPO 4000 TSRA BKN030CB

TAF TAF LFRN
Valid from the 24 at 12:00 until the 25 at 12:00 UTC


241100Z 2412/2512 33005KT 9999 SCT030
PROB40
TEMPO 2412/2420 4000 TSRA BKN030CB
BECMG 2416/2418 36010KT
BECMG 2420/2422 33005KT
BECMG 2500/2502 3000 BR BKN003
BECMG 2506/2508 9999 NSW BKN008
BECMG 2508/2510 SCT020
ATIS : +33 2 99 67 72 50
No reported NOTAMs for that airfield.



MET'MAP, your aeronautical weather chart ! - Copyright ORBIFLY December 2007 - Disclaimer

ORBIFLY MET'MAP TEAM :

Programming & Development : Alexandra Zaïnal
Concept & Development : Baudouin d'Aumeries
Co-Development & Prog : Marc-Olivier Méhu
Technical & hardware support : Manuel Goepfert

Contact : metmap@orbifly.com




SOURCES & CREDITS :

   NOAA